메인 페이지
METAR-TAF:

METAR-TAF

공항 :

몬트리올 피에르 엘리오트 트뤼도 국제공항

몬트리올 트뤼도, 퀘벡, 캐나다

위도: 45-28N, 경도: 073-45W, 고도: 31m

현재 날씨관측

예보는 53분 전, 02:00시(UTC)에 발표되었습니다.
남동5kt
온도 -12°C
습도 72%
기압 1028 hPa
시정: 24.1km
맑음

METAR: CYUL 130200Z 13005KT 15SM SKC M12/M16 A3035 RMK SLP281

시각: 21:53 (02:53 UTC)

예보

예보는 15분 전, 02:38시(UTC)에 발표되었습니다.
예보 대상 시간: 13일 03시부터 13일 24시까지 (UTC)
남동5kt
시정: 10km
고도 15000ft 상공 구름 조금
전환 중
13일 03시부터 13일 04시까지 (UTC)
북동6kt
전환 중
13일 12시부터 13일 13시까지 (UTC)
북동12kt
13일 1800시부터 (UTC)
북동10kt
시정: 10km
고도 3000ft 상공 구름 많음
전환 중
13일 22시부터 13일 23시까지 (UTC)
북북동5kt

TAF: CYUL 130238Z 1303/1324 13005KT P6SM FEW150 BECMG 1303/1304 05006KT BECMG 1312/1313 04012KT FM131800 05010KT P6SM BKN030 BECMG 1322/1323 02005KT RMK NXT FCST BY 130600Z

4,000개 이상의 공항 관측 자료 및 예보 (METAR 및 TAF 보고).

지도상에서 검색 가능한 기상관측소가 노란 점과 빨간 점으로 표시되어 있습니다.

기상관측소 명을 보려면 표시 위로 마우스를 이동하세요.

날씨 관측과 예보를 보려면 클릭하세요.

지도 변경 : 확대하려면 엑스 표시가 있는 녹색 버튼, 축소하려면 빼기 표시가 있는 녹색 버튼, 다음 페이지의 지도를 보려면 녹색 화살표를 클릭하세요.


METAR-TAF: